createdAt,value
2022-10-01T00:02:34.636Z,46.73
2022-10-01T00:05:14.120Z,46.94
2022-10-01T00:07:51.080Z,47.18
2022-10-01T00:10:22.917Z,46.70
2022-10-01T00:12:57.261Z,47.51
2022-10-01T00:15:31.749Z,47.16
2022-10-01T00:17:58.930Z,46.92
2022-10-01T00:20:28.922Z,47.42
2022-10-01T00:22:59.147Z,46.98
2022-10-01T00:25:28.559Z,46.70
2022-10-01T00:27:58.175Z,47.22
2022-10-01T00:30:31.144Z,47.14
2022-10-01T00:32:58.430Z,46.68
2022-10-01T00:35:31.194Z,47.30
2022-10-01T00:38:01.464Z,46.94
2022-10-01T00:40:36.141Z,47.27
2022-10-01T00:43:23.565Z,47.29
2022-10-01T00:46:05.046Z,47.81
2022-10-01T00:48:50.843Z,47.65
2022-10-01T00:51:21.370Z,47.58
2022-10-01T00:53:51.124Z,47.77
2022-10-01T00:56:21.037Z,48.06
2022-10-01T00:59:03.324Z,48.02
2022-10-01T01:01:31.464Z,47.74
2022-10-01T01:03:59.490Z,47.61
2022-10-01T01:06:26.724Z,47.71
2022-10-01T01:08:55.452Z,48.02
2022-10-01T01:11:39.370Z,48.17
2022-10-01T01:14:24.785Z,48.38
2022-10-01T01:16:59.027Z,47.98
2022-10-01T01:19:59.375Z,48.17
2022-10-01T01:22:31.460Z,48.21
2022-10-01T01:25:07.969Z,48.33
2022-10-01T01:27:51.581Z,48.45
2022-10-01T01:30:19.438Z,48.10
2022-10-01T01:32:55.932Z,48.25
2022-10-01T01:35:32.616Z,49.01
2022-10-01T01:38:05.537Z,48.75
2022-10-01T01:40:36.958Z,48.59
2022-10-01T01:43:08.707Z,48.37
2022-10-01T01:45:40.215Z,48.83
2022-10-01T01:48:10.205Z,48.88
2022-10-01T01:51:19.552Z,48.91
2022-10-01T01:53:47.004Z,48.91
2022-10-01T01:56:16.699Z,49.12
2022-10-01T01:58:46.239Z,48.81
2022-10-01T02:01:48.107Z,48.95
2022-10-01T02:04:32.341Z,48.68
2022-10-01T02:07:19.322Z,48.70
2022-10-01T02:10:27.845Z,49.18
2022-10-01T02:13:30.975Z,49.21
2022-10-01T02:16:15.208Z,49.32
2022-10-01T02:19:05.683Z,49.39
2022-10-01T02:21:41.060Z,49.56
2022-10-01T02:24:28.864Z,49.88
2022-10-01T02:27:09.749Z,49.80
2022-10-01T02:29:44.505Z,49.31
2022-10-01T02:32:26.198Z,49.51
2022-10-01T02:35:01.750Z,49.48
2022-10-01T02:37:39.822Z,49.34
2022-10-01T02:40:18.880Z,49.29
2022-10-01T02:43:11.697Z,49.23
2022-10-01T02:45:43.465Z,48.95
2022-10-01T02:48:17.915Z,49.33
2022-10-01T02:50:55.598Z,49.10
2022-10-01T02:53:40.536Z,49.32
2022-10-01T02:56:09.322Z,49.00
2022-10-01T02:58:39.540Z,48.83
2022-10-01T03:01:14.106Z,49.03
2022-10-01T03:03:42.153Z,49.17
2022-10-01T03:06:09.304Z,49.58
2022-10-01T03:08:36.809Z,48.90
2022-10-01T03:11:09.522Z,49.63
2022-10-01T03:13:36.995Z,49.05
2022-10-01T03:16:04.334Z,49.56
2022-10-01T03:18:34.660Z,49.36
2022-10-01T03:21:01.858Z,49.64
2022-10-01T03:23:31.552Z,49.63
2022-10-01T03:26:12.301Z,49.78
2022-10-01T03:28:47.153Z,49.28
2022-10-01T03:31:17.433Z,49.21
2022-10-01T03:33:47.090Z,49.32
2022-10-01T03:36:20.087Z,49.23
2022-10-01T03:38:49.539Z,49.47
2022-10-01T03:41:21.183Z,49.68
2022-10-01T03:43:48.603Z,49.48
2022-10-01T03:46:20.694Z,49.91
2022-10-01T03:48:50.875Z,49.64
2022-10-01T03:51:33.498Z,50.04
2022-10-01T03:54:11.841Z,49.84
2022-10-01T03:56:44.924Z,49.85
2022-10-01T04:01:59.841Z,49.78
2022-10-01T04:04:29.155Z,49.66
2022-10-01T04:06:56.328Z,50.11
2022-10-01T04:09:23.882Z,49.78
2022-10-01T04:11:53.740Z,49.48
2022-10-01T04:14:20.866Z,49.27
2022-10-01T04:16:49.399Z,48.85
2022-10-01T04:19:16.518Z,48.89
2022-10-01T04:21:43.721Z,48.79
2022-10-01T04:24:10.941Z,48.51
2022-10-01T04:26:38.170Z,47.92
2022-10-01T04:29:06.216Z,47.88
2022-10-01T04:31:35.754Z,47.81
2022-10-01T04:34:04.156Z,47.44
2022-10-01T04:36:31.439Z,47.27
2022-10-01T04:39:02.021Z,46.84
2022-10-01T04:41:31.663Z,46.79
2022-10-01T04:44:00.329Z,46.59
2022-10-01T04:46:29.778Z,46.26
2022-10-01T04:48:57.049Z,45.75
2022-10-01T04:51:24.814Z,45.26
2022-10-01T04:53:51.968Z,45.35
2022-10-01T04:56:19.127Z,45.32
2022-10-01T04:58:48.017Z,45.11
2022-10-01T05:01:15.512Z,45.02
2022-10-01T05:03:42.733Z,44.78
2022-10-01T05:06:09.970Z,44.05
2022-10-01T05:08:37.888Z,43.20
2022-10-01T05:11:05.193Z,42.69
2022-10-01T05:13:32.332Z,42.67
2022-10-01T05:16:01.943Z,41.91
2022-10-01T05:18:29.256Z,41.44
2022-10-01T05:20:56.511Z,41.25
2022-10-01T05:23:23.963Z,41.22
2022-10-01T05:25:52.543Z,40.35
2022-10-01T05:28:22.483Z,40.34
2022-10-01T05:30:51.330Z,39.46
2022-10-01T05:33:18.687Z,39.38
2022-10-01T05:35:45.919Z,39.95
2022-10-01T05:38:13.187Z,40.05
2022-10-01T05:40:45.050Z,39.98
2022-10-01T05:43:13.207Z,39.74
2022-10-01T05:45:42.099Z,39.27
2022-10-01T05:48:09.914Z,39.87
2022-10-01T05:50:44.759Z,39.67
2022-10-01T05:53:16.414Z,39.83
2022-10-01T05:55:49.492Z,39.75
2022-10-01T05:58:17.981Z,39.95
2022-10-01T06:00:47.911Z,39.21
2022-10-01T06:03:15.459Z,39.01
2022-10-01T06:05:45.157Z,38.86
2022-10-01T06:08:12.845Z,39.13
2022-10-01T06:10:40.332Z,38.81
2022-10-01T06:13:08.237Z,38.86
2022-10-01T06:15:38.158Z,38.93
2022-10-01T06:18:09.545Z,38.85
2022-10-01T06:20:40.804Z,38.55
2022-10-01T06:23:16.137Z,39.34
2022-10-01T06:25:44.451Z,39.15
2022-10-01T06:28:17.384Z,39.29
2022-10-01T06:30:45.797Z,39.65
2022-10-01T06:33:15.500Z,40.36
2022-10-01T06:35:45.679Z,40.29
2022-10-01T06:38:13.658Z,40.77
2022-10-01T06:40:41.935Z,40.83
2022-10-01T06:43:09.863Z,40.78
2022-10-01T06:45:42.822Z,41.07
2022-10-01T06:48:14.976Z,41.10
2022-10-01T06:50:46.721Z,40.64
2022-10-01T06:53:16.316Z,40.30
2022-10-01T06:55:44.835Z,40.27
2022-10-01T06:58:17.726Z,39.99
2022-10-01T07:00:46.016Z,39.94
2022-10-01T07:03:25.284Z,39.81
2022-10-01T07:05:53.961Z,39.63
2022-10-01T07:08:23.673Z,39.76
2022-10-01T07:10:51.284Z,39.74
2022-10-01T07:13:20.901Z,40.21
2022-10-01T07:15:51.519Z,40.27
2022-10-01T07:18:18.976Z,40.61
2022-10-01T07:20:46.536Z,40.93
2022-10-01T07:23:17.132Z,41.59
2022-10-01T07:25:45.340Z,41.38
2022-10-01T07:28:19.112Z,41.68
2022-10-01T07:31:00.057Z,41.50
2022-10-01T07:33:28.237Z,41.42
2022-10-01T07:35:55.912Z,41.15
2022-10-01T07:38:24.901Z,40.78
2022-10-01T07:40:56.503Z,40.66
2022-10-01T07:43:23.760Z,40.92
2022-10-01T07:46:03.503Z,39.39
2022-10-01T07:48:31.339Z,38.82
2022-10-01T07:50:58.993Z,38.48
2022-10-01T07:53:32.222Z,38.22
2022-10-01T07:56:05.365Z,38.04
2022-10-01T07:58:39.070Z,37.37
2022-10-01T08:01:09.251Z,37.72
2022-10-01T08:03:36.778Z,36.71
2022-10-01T08:06:07.365Z,36.16
2022-10-01T08:08:37.712Z,35.60
2022-10-01T08:11:09.684Z,35.38
2022-10-01T08:13:38.282Z,35.84
2022-10-01T08:16:13.523Z,34.03
2022-10-01T08:18:47.744Z,32.62
2022-10-01T08:21:15.305Z,33.13
2022-10-01T08:23:43.392Z,32.81
2022-10-01T08:26:13.787Z,33.21
2022-10-01T08:28:41.749Z,33.01
2022-10-01T08:31:10.178Z,32.02
2022-10-01T08:33:40.947Z,31.25
2022-10-01T08:36:10.778Z,31.35
2022-10-01T08:38:41.126Z,31.23
2022-10-01T08:41:41.144Z,30.74
2022-10-01T08:44:19.343Z,30.84
2022-10-01T08:46:48.852Z,30.78
2022-10-01T08:49:23.545Z,30.34
2022-10-01T08:52:30.001Z,29.89
2022-10-01T08:55:03.433Z,30.35
2022-10-01T08:57:47.263Z,29.93
2022-10-01T09:00:21.331Z,29.64
2022-10-01T09:02:50.800Z,30.56
2022-10-01T09:06:05.664Z,29.22
2022-10-01T09:08:48.573Z,28.70
2022-10-01T09:11:53.625Z,28.69
2022-10-01T09:14:42.849Z,28.32
2022-10-01T09:17:36.343Z,27.91
2022-10-01T09:20:24.012Z,28.24
2022-10-01T09:23:18.968Z,27.71
2022-10-01T09:25:51.289Z,27.47
2022-10-01T09:28:35.872Z,26.91
2022-10-01T09:31:40.578Z,27.45
2022-10-01T09:34:20.252Z,28.59
2022-10-01T09:37:19.313Z,27.79
2022-10-01T09:40:31.160Z,27.27
2022-10-01T09:42:58.467Z,28.10
2022-10-01T09:45:26.200Z,27.63
2022-10-01T09:47:57.918Z,27.92
2022-10-01T09:50:39.243Z,27.06
2022-10-01T09:53:24.488Z,27.12
2022-10-01T09:56:04.900Z,27.07
2022-10-01T09:58:40.274Z,27.65
2022-10-01T10:01:21.457Z,27.86
2022-10-01T10:03:57.578Z,27.81
2022-10-01T10:06:28.887Z,27.79
2022-10-01T10:08:58.688Z,27.50
2022-10-01T10:11:29.217Z,27.20
2022-10-01T10:14:00.664Z,27.02
2022-10-01T10:16:32.877Z,26.21
2022-10-01T10:19:28.594Z,25.87
2022-10-01T10:22:00.925Z,26.41
2022-10-01T10:24:38.434Z,25.61
2022-10-01T10:27:22.012Z,25.86
2022-10-01T10:29:49.579Z,25.67
2022-10-01T10:32:27.132Z,25.77
2022-10-01T10:35:02.839Z,26.30
2022-10-01T10:37:36.400Z,26.78
2022-10-01T10:40:08.434Z,26.51
2022-10-01T10:42:39.010Z,27.12
2022-10-01T10:45:17.841Z,27.10
2022-10-01T10:47:49.506Z,27.21
2022-10-01T10:50:37.102Z,27.09
2022-10-01T10:53:26.422Z,26.59
2022-10-01T10:56:02.274Z,27.02
2022-10-01T10:58:38.364Z,26.71
2022-10-01T11:01:12.244Z,26.55
2022-10-01T11:03:46.795Z,26.48
2022-10-01T11:06:16.364Z,26.46
2022-10-01T11:08:44.633Z,26.55
2022-10-01T11:11:28.218Z,26.34
2022-10-01T11:14:05.141Z,25.52
2022-10-01T11:16:53.854Z,25.75
2022-10-01T11:20:12.360Z,25.60
2022-10-01T11:23:10.581Z,25.12
2022-10-01T11:26:14.211Z,25.51
2022-10-01T11:29:19.453Z,24.08
2022-10-01T11:32:03.136Z,23.96
2022-10-01T11:34:59.045Z,23.62
2022-10-01T11:37:39.277Z,23.58
2022-10-01T11:40:35.540Z,23.59
2022-10-01T11:43:44.798Z,23.29
2022-10-01T11:46:19.586Z,23.87
2022-10-01T11:49:03.945Z,23.56
2022-10-01T11:52:00.443Z,25.20
2022-10-01T11:58:19.986Z,26.43
2022-10-01T12:01:11.337Z,26.54
2022-10-01T12:04:33.589Z,25.79
2022-10-01T12:07:27.770Z,25.92
2022-10-01T12:10:17.896Z,26.03
2022-10-01T12:13:12.383Z,26.37
2022-10-01T12:15:50.022Z,26.67
2022-10-01T12:22:07.089Z,26.74
2022-10-01T12:25:04.435Z,25.78
2022-10-01T12:28:14.916Z,25.35
2022-10-01T12:30:58.762Z,25.68
2022-10-01T12:33:47.927Z,26.85
2022-10-01T12:37:09.458Z,27.03
2022-10-01T12:39:58.235Z,26.42
2022-10-01T12:42:35.792Z,25.95
2022-10-01T12:45:31.911Z,25.89
2022-10-01T12:48:15.774Z,25.64
2022-10-01T12:51:33.106Z,25.08
2022-10-01T12:54:32.369Z,24.97
2022-10-01T12:57:12.546Z,23.94
2022-10-01T13:00:20.326Z,23.87
2022-10-01T13:03:08.810Z,25.03
2022-10-01T13:06:39.597Z,25.02
2022-10-01T13:09:32.497Z,24.28
2022-10-01T13:12:37.357Z,24.29
2022-10-01T13:15:21.312Z,22.81
2022-10-01T13:18:16.076Z,22.80
2022-10-01T13:21:01.477Z,23.86
2022-10-01T13:23:47.440Z,23.15
2022-10-01T13:26:28.749Z,24.53
2022-10-01T13:29:19.512Z,23.64
2022-10-01T13:32:26.275Z,23.64
2022-10-01T13:34:57.066Z,23.53
2022-10-01T13:37:32.444Z,24.12
2022-10-01T13:40:04.279Z,24.18
2022-10-01T13:42:42.727Z,24.57
2022-10-01T13:45:40.529Z,23.94
2022-10-01T13:48:12.182Z,24.25
2022-10-01T13:50:40.818Z,24.76
2022-10-01T13:53:17.318Z,24.20
2022-10-01T13:55:49.663Z,23.90
2022-10-01T13:58:40.153Z,23.67
2022-10-01T14:01:21.303Z,25.13
2022-10-01T14:03:59.861Z,24.86
2022-10-01T14:06:39.828Z,25.18
2022-10-01T14:09:13.107Z,25.61
2022-10-01T14:12:04.411Z,25.96
2022-10-01T14:14:56.382Z,25.89
2022-10-01T14:17:28.416Z,25.59
2022-10-01T14:19:57.028Z,26.39
2022-10-01T14:22:47.276Z,26.57
2022-10-01T14:25:26.832Z,26.96
2022-10-01T14:28:23.332Z,26.66
2022-10-01T14:31:02.693Z,26.26
2022-10-01T14:33:43.063Z,27.30
2022-10-01T14:36:35.554Z,27.41
2022-10-01T14:39:12.688Z,26.76
2022-10-01T14:41:39.957Z,27.20
2022-10-01T14:44:31.837Z,27.23
2022-10-01T14:47:00.476Z,27.08
2022-10-01T14:49:32.943Z,26.66
2022-10-01T14:52:07.301Z,26.67
2022-10-01T14:55:02.940Z,27.01
2022-10-01T14:57:52.476Z,27.59
2022-10-01T15:00:26.866Z,28.10
2022-10-01T15:03:15.507Z,27.96
2022-10-01T15:05:44.799Z,29.18
2022-10-01T15:08:18.001Z,29.37
2022-10-01T15:11:07.869Z,29.81
2022-10-01T15:13:43.386Z,29.44
2022-10-01T15:16:22.812Z,29.35
2022-10-01T15:18:58.542Z,31.62
2022-10-01T15:21:49.220Z,32.49
2022-10-01T15:24:34.944Z,32.17
2022-10-01T15:27:14.948Z,32.93
2022-10-01T15:29:43.870Z,33.07
2022-10-01T15:32:17.270Z,32.91
2022-10-01T15:34:48.114Z,33.03
2022-10-01T15:37:27.786Z,32.79
2022-10-01T15:39:56.780Z,33.24
2022-10-01T15:42:35.477Z,33.46
2022-10-01T15:45:09.340Z,33.79
2022-10-01T15:48:00.056Z,34.65
2022-10-01T15:50:37.194Z,34.14
2022-10-01T15:53:21.038Z,34.67
2022-10-01T15:55:53.150Z,35.34
2022-10-01T15:58:39.480Z,35.58
2022-10-01T16:01:22.359Z,34.77
2022-10-01T16:03:57.644Z,35.25
2022-10-01T16:06:34.674Z,35.98
2022-10-01T16:09:07.715Z,35.82
2022-10-01T16:12:00.327Z,35.61
2022-10-01T16:14:44.283Z,35.91
2022-10-01T16:17:19.784Z,36.22
2022-10-01T16:19:56.777Z,36.43
2022-10-01T16:22:35.976Z,36.15
2022-10-01T16:25:29.590Z,36.10
2022-10-01T16:28:04.527Z,36.53
2022-10-01T16:30:34.254Z,36.15
2022-10-01T16:33:04.836Z,36.04
2022-10-01T16:35:36.065Z,36.57
2022-10-01T16:38:08.599Z,36.38
2022-10-01T16:40:45.412Z,37.02
2022-10-01T16:43:19.103Z,36.93
2022-10-01T16:45:46.661Z,37.00
2022-10-01T16:48:17.260Z,37.78
2022-10-01T16:50:46.864Z,37.25
2022-10-01T16:53:18.693Z,37.86
2022-10-01T16:55:47.206Z,38.37
2022-10-01T16:58:14.855Z,37.55
2022-10-01T17:00:42.202Z,38.23
2022-10-01T17:03:17.296Z,38.10
2022-10-01T17:05:46.856Z,38.18
2022-10-01T17:08:15.500Z,38.45
2022-10-01T17:10:45.869Z,38.85
2022-10-01T17:13:14.207Z,40.09
2022-10-01T17:15:43.776Z,39.09
2022-10-01T17:18:11.336Z,39.39
2022-10-01T17:20:38.777Z,40.27
2022-10-01T17:23:06.658Z,39.90
2022-10-01T17:25:36.050Z,39.85
2022-10-01T17:28:06.118Z,40.68
2022-10-01T17:30:34.032Z,41.69
2022-10-01T17:33:02.132Z,41.47
2022-10-01T17:35:30.326Z,40.78
2022-10-01T17:37:58.624Z,41.04
2022-10-01T17:40:28.528Z,41.32
2022-10-01T17:42:55.849Z,41.83
2022-10-01T17:45:24.431Z,41.37
2022-10-01T17:47:51.666Z,41.37
2022-10-01T17:50:19.144Z,42.40
2022-10-01T17:52:49.827Z,42.22
2022-10-01T17:55:22.314Z,42.67
2022-10-01T17:57:50.538Z,42.10
2022-10-01T18:00:18.397Z,43.12
2022-10-01T18:02:48.332Z,42.70
2022-10-01T18:05:17.739Z,42.58
2022-10-01T18:07:52.643Z,43.42
2022-10-01T18:10:20.113Z,44.08
2022-10-01T18:12:50.211Z,44.38
2022-10-01T18:15:20.584Z,44.71
2022-10-01T18:18:48.568Z,44.07
2022-10-01T18:20:45.061Z,44.66
2022-10-01T18:23:13.498Z,44.41
2022-10-01T18:25:41.009Z,44.02
2022-10-01T18:28:08.564Z,43.74
2022-10-01T18:30:36.674Z,44.84
2022-10-01T18:33:07.209Z,43.85
2022-10-01T18:35:35.880Z,43.47
2022-10-01T18:38:26.918Z,43.48
2022-10-01T18:41:04.563Z,44.23
2022-10-01T18:43:36.933Z,44.09
2022-10-01T18:46:49.015Z,44.62
2022-10-01T18:49:53.974Z,44.52
2022-10-01T18:52:55.776Z,43.55
2022-10-01T18:55:40.784Z,44.54
2022-10-01T18:58:15.511Z,43.86
2022-10-01T19:00:56.544Z,43.40
2022-10-01T19:03:55.780Z,43.14
2022-10-01T19:06:44.830Z,43.33
2022-10-01T19:09:41.021Z,43.64
2022-10-01T19:12:37.195Z,43.47
2022-10-01T19:15:26.371Z,42.98
2022-10-01T19:18:12.366Z,43.60
2022-10-01T19:20:50.569Z,43.71
2022-10-01T19:23:40.658Z,44.01
2022-10-01T19:26:19.133Z,43.50
2022-10-01T19:29:17.319Z,43.46
2022-10-01T19:31:58.017Z,43.92
2022-10-01T19:34:51.082Z,43.22
2022-10-01T19:37:41.767Z,42.93
2022-10-01T19:40:23.904Z,43.18
2022-10-01T19:43:23.033Z,43.20
2022-10-01T19:46:05.470Z,43.18
2022-10-01T19:48:42.753Z,43.52
2022-10-01T19:51:23.469Z,43.04
2022-10-01T19:54:00.409Z,43.24
2022-10-01T19:56:31.361Z,42.62
2022-10-01T19:59:01.850Z,43.34
2022-10-01T20:01:39.562Z,43.43
2022-10-01T20:04:18.382Z,43.24
2022-10-01T20:06:47.859Z,43.37
2022-10-01T20:09:27.417Z,42.76
2022-10-01T20:12:21.666Z,42.51
2022-10-01T20:15:32.602Z,42.58
2022-10-01T20:18:28.815Z,42.68
2022-10-01T20:21:02.249Z,42.29
2022-10-01T20:23:35.509Z,42.16
2022-10-01T20:26:23.706Z,41.96
2022-10-01T20:29:06.215Z,41.87
2022-10-01T20:31:42.792Z,42.05
2022-10-01T20:34:52.531Z,41.91
2022-10-01T20:37:35.285Z,42.26
2022-10-01T20:40:13.401Z,41.79
2022-10-01T20:42:47.089Z,41.72
2022-10-01T20:45:28.012Z,41.93
2022-10-01T20:48:04.640Z,41.68
2022-10-01T20:50:41.558Z,41.90
2022-10-01T20:53:31.455Z,42.06
2022-10-01T20:56:34.967Z,42.21
2022-10-01T20:59:25.286Z,42.30
2022-10-01T21:02:02.614Z,42.13
2022-10-01T21:04:38.518Z,42.22
2022-10-01T21:07:28.740Z,42.07
2022-10-01T21:10:03.647Z,41.60
2022-10-01T21:12:49.998Z,41.92
2022-10-01T21:15:19.258Z,42.09
2022-10-01T21:18:38.610Z,42.19
2022-10-01T21:21:40.864Z,42.24
2022-10-01T21:24:26.614Z,42.09
2022-10-01T21:27:24.734Z,42.56
2022-10-01T21:30:19.054Z,42.25
2022-10-01T21:33:02.025Z,42.04
2022-10-01T21:35:46.171Z,42.42
2022-10-01T21:38:28.597Z,42.56
2022-10-01T21:41:33.651Z,42.67
2022-10-01T21:44:29.481Z,42.85
2022-10-01T21:47:13.224Z,42.69
2022-10-01T21:49:59.306Z,42.70
2022-10-01T21:52:51.145Z,42.86
2022-10-01T21:55:33.353Z,42.56
2022-10-01T21:58:19.745Z,42.95
2022-10-01T22:01:08.590Z,43.00
2022-10-01T22:03:46.610Z,43.14
2022-10-01T22:06:25.794Z,42.85
2022-10-01T22:09:08.213Z,42.81
2022-10-01T22:11:46.499Z,43.34
2022-10-01T22:14:18.069Z,43.01
2022-10-01T22:16:57.698Z,43.24
2022-10-01T22:19:53.296Z,43.54
2022-10-01T22:22:26.049Z,43.26
2022-10-01T22:24:54.659Z,43.36
2022-10-01T22:27:44.661Z,43.31
2022-10-01T22:30:21.309Z,43.36
2022-10-01T22:33:01.646Z,43.54
2022-10-01T22:35:34.436Z,43.19
2022-10-01T22:38:15.336Z,43.00
2022-10-01T22:40:47.435Z,42.76
2022-10-01T22:43:14.889Z,42.79
2022-10-01T22:46:13.726Z,43.10
2022-10-01T22:48:48.571Z,43.02
2022-10-01T22:51:50.341Z,43.30
2022-10-01T22:55:10.834Z,42.92
2022-10-01T22:58:01.054Z,43.59
2022-10-01T23:00:29.036Z,43.40
2022-10-01T23:03:22.272Z,43.57
2022-10-01T23:06:07.672Z,43.69
2022-10-01T23:08:46.728Z,43.74
2022-10-01T23:11:44.648Z,43.87
2022-10-01T23:14:46.832Z,43.74
2022-10-01T23:17:20.818Z,43.56
2022-10-01T23:20:07.073Z,43.91
2022-10-01T23:22:51.766Z,44.28
2022-10-01T23:25:40.585Z,44.02
2022-10-01T23:28:28.657Z,44.08
2022-10-01T23:31:04.957Z,43.65
2022-10-01T23:33:49.832Z,43.93
2022-10-01T23:36:26.705Z,43.95
2022-10-01T23:39:30.369Z,44.00
2022-10-01T23:42:07.712Z,43.73
2022-10-01T23:45:14.801Z,44.29
2022-10-01T23:47:53.574Z,43.76
2022-10-01T23:50:29.411Z,43.87
2022-10-01T23:53:13.478Z,44.09
2022-10-01T23:56:31.470Z,43.80
2022-10-01T23:59:10.547Z,43.82
